Saint Henry, Ohio
Current Conditions -  °F | °C
As of 1:35 PM on Monday 22 Dec 2014 (Local Time) from KVES Reporting Station
Overcast Overcast  
Wind Chill: 32°   Ceiling: 9500
Heat Index: 37°   Visibility: 10mi
Dew Point: 34°   Wind: 7mph
Humidity: 87%   Direction: 130°SE
Pressure: 29.89"   Gusts: NA
Location:  40.42°N, 84.64°W
Report Text: KVES 221835Z AUTO 13006KT 10SM OVC095 03/01 A2989 RMK AO2
Loading
Personal Weather Stations






























Interactive Weather Map New forecast layout! Learn more

10-Day Weather Forecast

Advertisements
Track Severe Weather on mobile